Fremont, NE

11:02 PM CDT on April 26, 2018 (GMT -0500)
Fremont Municipal

Weather History for KFET - October, 2014

Change the Weather History Date:

Thursday, October 30, 2014

  Actual Average Record
Temperature  
Mean Temperature 48 °F -  
Max Temperature 61 °F 57 °F 88 °F (1950)
Min Temperature 36 °F 37 °F 17 °F (1991)
Degree Days  
Heating Degree Days 16    
Moisture  
Dew Point 37 °F    
Average Humidity 64    
Maximum Humidity 87    
Minimum Humidity 45    
Precipitation  
Precipitation 0.00 in - - ()
Sea Level Pressure  
Sea Level Pressure 30.13 in    
Wind  
Wind Speed 9 mph (NW)    
Max Wind Speed 26 mph    
Max Gust Speed 34 mph    
Visibility 10 miles    
Events      
Averages and records for this station are not official NWS values.
T = Trace of Precipitation, MM = Missing Value Source: NWS Daily Summary

Daily Weather History Graph

Daily Weather History Graph

Search for Another Location

Airport or City:

Astronomy

Oct. 30, 2014 Rise Set
Actual Time 7:55 AM CDT 6:23 PM CDT
Civil Twilight 7:26 AM CDT 6:52 PM CDT
Nautical Twilight 6:54 AM CDT 7:24 PM CDT
Astronomical Twilight 6:21 AM CDT 7:56 PM CDT
Moon 2:00 PM CDT (10/30) No Moon Set
Length of Visible Light 11h 25m
Length of Day
10h 28m
Waxing Crescent, 45% of the Moon is Illuminated
Oct 30
Waxing Crescent
Oct 30
First Quarter
Nov 6
Full
Nov 14
Last Quarter
Nov 22
New

Hourly Weather History & Observations

Time (CDT) Temp. Windchill Dew Point Humidity Pressure Visibility Wind Dir Wind Speed Gust Speed Precip Events Conditions
12:15 AM 48.2 °F - 33.3 °F 56% 30.04 in 10.0 mi East 4.6 mph - N/A   Clear
12:35 AM 47.1 °F - 33.8 °F 60% 30.04 in 10.0 mi ESE 4.6 mph - N/A   Scattered Clouds
12:55 AM 48.9 °F - 33.1 °F 54% 30.03 in 10.0 mi East 4.6 mph - N/A   Overcast
1:15 AM 48.2 °F - 32.9 °F 55% 30.03 in 10.0 mi ENE 3.5 mph - N/A   Scattered Clouds
1:35 AM 46.6 °F - 34.0 °F 62% 30.02 in 10.0 mi East 3.5 mph - N/A   Clear
1:55 AM 45.7 °F 44.4 °F 33.1 °F 61% 30.01 in 10.0 mi ESE 3.5 mph - N/A   Clear
2:15 AM 43.9 °F 41.3 °F 33.4 °F 67% 30.00 in 10.0 mi East 4.6 mph - N/A   Clear
2:35 AM 46.4 °F - 32.9 °F 59% 30.01 in 10.0 mi Calm Calm - N/A   Clear
2:55 AM 43.5 °F 40.1 °F 33.3 °F 67% 29.99 in 10.0 mi SE 5.8 mph - N/A   Clear
3:15 AM 45.3 °F 43.0 °F 32.9 °F 62% 29.99 in 10.0 mi East 4.6 mph - N/A   Clear
3:35 AM 43.2 °F - 33.3 °F 68% 29.99 in 10.0 mi Calm Calm - N/A   Clear
3:55 AM 42.8 °F - 33.6 °F 70% 29.99 in 10.0 mi Calm Calm - N/A   Clear
4:15 AM 41.5 °F - 33.4 °F 73% 30.00 in 10.0 mi Calm Calm - N/A   Clear
4:35 AM 40.6 °F - 34.0 °F 77% 29.99 in 10.0 mi Calm Calm - N/A   Scattered Clouds
4:55 AM 39.7 °F 37.6 °F 33.8 °F 79% 29.99 in 10.0 mi WNW 3.5 mph - N/A   Scattered Clouds
5:15 AM 37.4 °F 33.8 °F 32.9 °F 84% 30.00 in 10.0 mi WNW 4.6 mph - N/A   Clear
5:35 AM 37.0 °F 32.4 °F 33.1 °F 86% 30.01 in 10.0 mi West 5.8 mph - N/A   Clear
5:55 AM 37.6 °F 35.1 °F 33.3 °F 84% 30.01 in 10.0 mi West 3.5 mph - N/A   Clear
6:15 AM 36.9 °F 34.3 °F 32.9 °F 86% 30.01 in 10.0 mi West 3.5 mph - N/A   Clear
6:35 AM 36.0 °F 31.1 °F 32.4 °F 87% 30.02 in 10.0 mi West 5.8 mph - N/A   Clear
6:55 AM 38.1 °F 32.9 °F 33.4 °F 83% 30.02 in 10.0 mi WNW 6.9 mph - N/A   Clear
7:15 AM 37.8 °F 31.8 °F 33.3 °F 84% 30.02 in 10.0 mi WNW 8.1 mph - N/A   Clear
7:35 AM 37.4 °F 31.4 °F 33.3 °F 85% 30.03 in 10.0 mi West 8.1 mph - N/A   Clear
7:55 AM 36.5 °F 31.8 °F 32.9 °F 87% 30.04 in 10.0 mi WNW 5.8 mph - N/A   Clear
8:15 AM 36.9 °F 32.2 °F 33.3 °F 87% 30.04 in 10.0 mi WNW 5.8 mph - N/A   Clear
8:35 AM 38.5 °F 33.4 °F 34.7 °F 86% 30.05 in 10.0 mi WNW 6.9 mph - N/A   Clear
8:55 AM 43.0 °F 38.2 °F 36.7 °F 78% 30.06 in 10.0 mi West 8.1 mph - N/A   Clear
9:15 AM 46.0 °F 41.4 °F 37.2 °F 71% 30.07 in 10.0 mi West 9.2 mph - N/A   Clear
9:35 AM 47.3 °F - 38.5 °F 71% 30.07 in 10.0 mi West 10.4 mph - N/A   Clear
9:55 AM 49.3 °F - 39.6 °F 69% 30.08 in 10.0 mi WNW 8.1 mph - N/A   Clear
10:15 AM 52.5 °F - 39.7 °F 62% 30.08 in 10.0 mi WNW 12.7 mph - N/A   Clear
10:35 AM 54.5 °F - 39.6 °F 57% 30.09 in 10.0 mi NW 13.8 mph - N/A   Clear
10:55 AM 55.4 °F - 39.2 °F 54% 30.09 in 10.0 mi NW 16.1 mph 19.6 mph N/A   Clear
11:15 AM 56.3 °F - 39.7 °F 54% 30.10 in 10.0 mi NW 12.7 mph - N/A   Clear
11:35 AM 57.4 °F - 39.9 °F 52% 30.10 in 10.0 mi NW 13.8 mph - N/A   Clear
11:55 AM 58.3 °F - 40.1 °F 51% 30.10 in 10.0 mi NW 17.3 mph 23.0 mph N/A   Clear
12:15 PM 59.4 °F - 40.8 °F 50% 30.11 in 10.0 mi NNW 16.1 mph 23.0 mph N/A   Clear
12:35 PM 59.9 °F - 40.6 °F 49% 30.10 in 10.0 mi NW 20.7 mph 25.3 mph N/A   Clear
12:55 PM 60.6 °F - 41.2 °F 49% 30.11 in 10.0 mi NNW 17.3 mph 25.3 mph N/A   Clear
1:15 PM 60.8 °F - 41.0 °F 48% 30.11 in 10.0 mi NNW 19.6 mph 25.3 mph N/A   Clear
1:35 PM 61.2 °F - 41.0 °F 47% 30.11 in 10.0 mi NW 24.2 mph 28.8 mph N/A   Clear
1:55 PM 61.3 °F - 41.2 °F 48% 30.11 in 10.0 mi NNW 16.1 mph 28.8 mph N/A   Clear
2:15 PM 61.5 °F - 41.0 °F 47% 30.11 in 10.0 mi NNW 18.4 mph 28.8 mph N/A   Clear
2:35 PM 61.7 °F - 39.9 °F 45% 30.11 in 10.0 mi NNW 19.6 mph 28.8 mph N/A   Clear
2:55 PM 61.3 °F - 40.1 °F 46% 30.11 in 10.0 mi NNW 20.7 mph 31.1 mph N/A   Clear
3:15 PM 61.0 °F - 40.6 °F 47% 30.12 in 10.0 mi NW 24.2 mph 27.6 mph N/A   Clear
3:35 PM 60.8 °F - 39.9 °F 46% 30.13 in 10.0 mi NNW 20.7 mph 27.6 mph N/A   Clear
3:55 PM 60.3 °F - 40.3 °F 48% 30.13 in 10.0 mi NNW 17.3 mph 26.5 mph N/A   Clear
4:15 PM 59.4 °F - 39.0 °F 47% 30.14 in 10.0 mi NNW 18.4 mph 25.3 mph N/A   Clear
4:35 PM 58.6 °F - 38.5 °F 47% 30.16 in 10.0 mi NW 26.5 mph 34.5 mph N/A   Clear
4:55 PM 57.6 °F - 37.9 °F 48% 30.16 in 10.0 mi NNW 21.9 mph 29.9 mph N/A   Clear
5:15 PM 56.7 °F - 37.4 °F 49% 30.17 in 10.0 mi NNW 17.3 mph 27.6 mph N/A   Clear
5:35 PM 55.6 °F - 37.4 °F 50% 30.19 in 10.0 mi NNW 18.4 mph 27.6 mph N/A   Clear
5:55 PM 54.1 °F - 37.6 °F 54% 30.20 in 10.0 mi NW 24.2 mph 28.8 mph N/A   Clear
6:15 PM 52.5 °F - 37.4 °F 56% 30.21 in 10.0 mi NNW 23.0 mph 29.9 mph N/A   Clear
6:35 PM 49.5 °F - 37.8 °F 64% 30.23 in 10.0 mi NW 18.4 mph 25.3 mph N/A   Clear
6:55 PM 48.0 °F - 37.8 °F 68% 30.25 in 10.0 mi NW 19.6 mph - N/A   Clear
7:15 PM 47.3 °F - 38.5 °F 71% 30.26 in 10.0 mi NW 17.3 mph 25.3 mph N/A   Clear
7:35 PM 46.9 °F - 38.7 °F 73% 30.27 in 10.0 mi NW 15.0 mph 20.7 mph N/A   Clear
7:55 PM 46.6 °F - 39.2 °F 75% 30.28 in 10.0 mi NW 15.0 mph 21.9 mph N/A   Scattered Clouds
8:15 PM 47.5 °F - 40.1 °F 76% 30.29 in 10.0 mi NNW 21.9 mph 27.6 mph N/A   Mostly Cloudy
8:35 PM 47.5 °F - 40.3 °F 76% 30.30 in 10.0 mi NNW 16.1 mph 21.9 mph N/A   Overcast
8:55 PM 47.5 °F - 40.1 °F 76% 30.31 in 10.0 mi NNW 18.4 mph 25.3 mph N/A   Overcast
9:15 PM 47.7 °F - 39.7 °F 74% 30.31 in 10.0 mi NNW 16.1 mph 27.6 mph N/A   Overcast
9:35 PM 47.7 °F - 39.4 °F 73% 30.32 in 10.0 mi NNW 13.8 mph 21.9 mph N/A   Overcast
9:55 PM 47.5 °F - 37.6 °F 69% 30.34 in 10.0 mi NNW 15.0 mph 26.5 mph N/A   Overcast
10:15 PM 46.4 °F 39.8 °F 36.1 °F 67% 30.35 in 10.0 mi North 16.1 mph 26.5 mph N/A   Overcast
10:35 PM 46.0 °F 39.9 °F 34.7 °F 65% 30.36 in 10.0 mi North 13.8 mph 24.2 mph N/A   Overcast
10:55 PM 45.5 °F 39.2 °F 35.1 °F 67% 30.37 in 10.0 mi North 13.8 mph 23.0 mph N/A   Overcast
11:15 PM 43.9 °F 37.9 °F 33.4 °F 67% 30.39 in 10.0 mi NNW 11.5 mph 21.9 mph N/A   Overcast
11:35 PM 42.8 °F 35.4 °F 32.0 °F 66% 30.40 in 10.0 mi NNW 15.0 mph 20.7 mph N/A   Overcast
11:55 PM 42.3 °F 35.1 °F 32.0 °F 67% 30.40 in 10.0 mi North 13.8 mph 20.7 mph N/A   Overcast